createdAt,value
2023-03-08T00:02:58.047Z,2.75
2023-03-08T00:07:59.641Z,2.58
2023-03-08T00:13:01.282Z,3.63
2023-03-08T00:18:03.269Z,2.45
2023-03-08T00:23:04.893Z,2.50
2023-03-08T00:28:06.527Z,3.47
2023-03-08T00:33:08.209Z,3.40
2023-03-08T00:38:09.837Z,3.60
2023-03-08T00:43:13.088Z,3.80
2023-03-08T00:48:14.904Z,2.95
2023-03-08T00:53:16.561Z,3.03
2023-03-08T00:58:18.386Z,2.78
2023-03-08T01:03:21.765Z,2.85
2023-03-08T01:08:25.652Z,2.30
2023-03-08T01:13:33.070Z,2.65
2023-03-08T01:23:36.302Z,5.15
2023-03-08T01:28:38.511Z,4.22
2023-03-08T01:33:42.241Z,1.85
2023-03-08T01:38:44.885Z,2.70
2023-03-08T01:43:47.312Z,1.70
2023-03-08T01:49:06.479Z,3.83
2023-03-08T01:54:14.205Z,1.95
2023-03-08T01:59:16.192Z,3.13
2023-03-08T02:04:17.921Z,2.10
2023-03-08T02:09:21.646Z,2.05
2023-03-08T02:14:25.086Z,3.60
2023-03-08T02:19:39.144Z,5.72
2023-03-08T02:24:41.022Z,2.83
2023-03-08T02:29:42.712Z,2.58
2023-03-08T02:34:44.404Z,2.28
2023-03-08T02:39:47.420Z,2.38
2023-03-08T02:44:49.365Z,2.53
2023-03-08T02:49:51.544Z,4.43
2023-03-08T02:54:53.937Z,3.72
2023-03-08T02:59:57.641Z,6.55
2023-03-08T03:05:08.079Z,3.85
2023-03-08T03:10:12.197Z,3.50
2023-03-08T03:15:13.902Z,4.32
2023-03-08T03:20:16.898Z,2.63
2023-03-08T03:25:18.901Z,3.50
2023-03-08T03:30:22.801Z,5.45
2023-03-08T03:35:25.021Z,4.43
2023-03-08T03:40:26.869Z,3.70
2023-03-08T03:45:34.073Z,4.70
2023-03-08T03:50:35.808Z,4.82
2023-03-08T03:55:43.524Z,5.53
2023-03-08T04:00:45.848Z,4.68
2023-03-08T04:06:15.972Z,5.90
2023-03-08T04:11:21.407Z,6.78
2023-03-08T04:16:28.777Z,8.02
2023-03-08T04:21:33.757Z,7.85
2023-03-08T04:26:36.485Z,8.85
2023-03-08T04:31:38.373Z,8.85
2023-03-08T04:36:44.108Z,9.43
2023-03-08T04:41:45.833Z,9.60
2023-03-08T04:46:56.276Z,9.48
2023-03-08T04:52:05.301Z,10.82
2023-03-08T04:57:09.528Z,10.48
2023-03-08T05:02:12.906Z,10.15
2023-03-08T05:07:14.993Z,17.15
2023-03-08T05:12:17.448Z,10.45
2023-03-08T05:17:29.355Z,11.13
2023-03-08T05:22:35.686Z,10.73
2023-03-08T05:27:42.560Z,12.45
2023-03-08T05:32:44.461Z,11.80
2023-03-08T05:37:46.359Z,11.35
2023-03-08T05:42:48.179Z,11.07
2023-03-08T05:47:50.707Z,10.35
2023-03-08T05:52:52.540Z,12.40
2023-03-08T05:57:58.620Z,12.20
2023-03-08T06:03:04.419Z,12.52
2023-03-08T06:08:09.594Z,16.70
2023-03-08T06:13:11.471Z,10.75
2023-03-08T06:18:13.308Z,12.82
2023-03-08T06:23:15.821Z,11.23
2023-03-08T06:28:18.909Z,9.68
2023-03-08T06:33:23.372Z,10.43
2023-03-08T06:38:27.519Z,12.70
2023-03-08T06:43:31.125Z,11.38
2023-03-08T06:48:34.619Z,11.98
2023-03-08T06:53:38.119Z,11.60
2023-03-08T06:58:41.585Z,13.20
2023-03-08T07:03:45.377Z,12.18
2023-03-08T07:08:47.055Z,12.43
2023-03-08T07:13:48.919Z,11.88
2023-03-08T07:18:50.742Z,12.73
2023-03-08T07:23:53.140Z,12.20
2023-03-08T07:28:55.922Z,13.45
2023-03-08T07:33:57.705Z,13.15
2023-03-08T07:38:59.548Z,12.80
2023-03-08T07:44:02.463Z,11.70
2023-03-08T07:49:04.290Z,12.60
2023-03-08T07:54:06.011Z,11.82
2023-03-08T07:59:07.810Z,15.50
2023-03-08T08:04:09.858Z,14.82
2023-03-08T08:09:14.836Z,13.23
2023-03-08T08:14:16.652Z,15.35
2023-03-08T08:19:18.419Z,15.88
2023-03-08T08:24:20.260Z,16.02
2023-03-08T08:29:22.517Z,14.43
2023-03-08T08:34:25.042Z,15.02
2023-03-08T08:39:26.813Z,16.88
2023-03-08T08:44:28.768Z,15.18
2023-03-08T08:49:30.689Z,16.45
2023-03-08T08:54:33.818Z,15.68
2023-03-08T08:59:35.495Z,17.50
2023-03-08T09:04:37.389Z,15.65
2023-03-08T09:09:39.289Z,15.88
2023-03-08T09:14:41.098Z,14.82
2023-03-08T09:19:42.838Z,16.58
2023-03-08T09:24:47.898Z,15.65
2023-03-08T09:29:49.641Z,16.80
2023-03-08T09:34:52.076Z,18.48
2023-03-08T09:39:54.201Z,18.25
2023-03-08T09:45:07.274Z,17.63
2023-03-08T09:50:15.866Z,18.55
2023-03-08T09:55:38.489Z,16.92
2023-03-08T10:00:41.410Z,17.83
2023-03-08T10:05:47.460Z,17.00
2023-03-08T10:10:55.158Z,15.43
2023-03-08T10:16:23.728Z,16.63
2023-03-08T10:21:27.493Z,14.18
2023-03-08T10:26:31.524Z,13.23
2023-03-08T10:31:33.810Z,13.05
2023-03-08T10:36:46.396Z,12.43
2023-03-08T10:42:00.129Z,14.98
2023-03-08T10:47:04.605Z,13.45
2023-03-08T10:52:25.280Z,13.48
2023-03-08T10:57:27.841Z,13.40
2023-03-08T11:02:29.687Z,13.95
2023-03-08T11:07:33.280Z,12.10
2023-03-08T11:12:34.981Z,14.50
2023-03-08T11:17:39.499Z,13.15
2023-03-08T11:22:45.626Z,12.70
2023-03-08T11:28:02.588Z,11.25
2023-03-08T11:33:04.470Z,12.10
2023-03-08T11:38:16.738Z,11.73
2023-03-08T11:43:31.027Z,12.75
2023-03-08T11:48:51.721Z,11.45
2023-03-08T11:54:02.496Z,13.05
2023-03-08T11:59:19.777Z,11.65
2023-03-08T12:04:36.887Z,13.88
2023-03-08T12:10:09.120Z,13.60
2023-03-08T12:15:27.504Z,13.82
2023-03-08T12:20:34.278Z,16.33
2023-03-08T12:25:40.415Z,17.15
2023-03-08T12:31:09.250Z,17.25
2023-03-08T12:36:14.716Z,19.45
2023-03-08T12:41:28.508Z,18.33
2023-03-08T12:47:07.482Z,17.92
2023-03-08T12:52:18.171Z,18.17
2023-03-08T12:57:23.930Z,19.83
2023-03-08T13:02:34.726Z,19.70
2023-03-08T13:07:52.785Z,19.83
2023-03-08T13:13:01.964Z,20.30
2023-03-08T13:18:08.552Z,19.30
2023-03-08T13:23:13.202Z,19.98
2023-03-08T13:28:20.337Z,19.52
2023-03-08T13:38:38.087Z,16.58
2023-03-08T13:43:39.686Z,14.00
2023-03-08T13:48:44.292Z,144.75
2023-03-08T13:53:46.706Z,15.15
2023-03-08T13:58:50.633Z,15.82
2023-03-08T14:03:58.324Z,13.00
2023-03-08T14:09:02.534Z,13.00
2023-03-08T14:14:09.506Z,11.15
2023-03-08T14:19:28.029Z,10.63
2023-03-08T14:24:33.049Z,10.88
2023-03-08T14:29:36.414Z,11.43
2023-03-08T14:34:42.415Z,11.90
2023-03-08T14:39:46.675Z,12.85
2023-03-08T14:44:53.766Z,11.35
2023-03-08T14:50:17.514Z,10.77
2023-03-08T14:55:34.271Z,10.65
2023-03-08T15:00:36.065Z,8.23
2023-03-08T15:05:39.784Z,8.18
2023-03-08T15:10:42.049Z,10.27
2023-03-08T15:15:43.943Z,7.32
2023-03-08T15:20:49.479Z,7.00
2023-03-08T15:25:52.240Z,7.32
2023-03-08T15:30:57.313Z,8.35
2023-03-08T15:35:59.152Z,8.02
2023-03-08T15:41:00.883Z,8.00
2023-03-08T15:46:02.562Z,9.57
2023-03-08T15:51:04.610Z,9.10
2023-03-08T15:56:06.398Z,9.30
2023-03-08T16:01:08.351Z,9.63
2023-03-08T16:06:12.059Z,11.45
2023-03-08T16:11:16.779Z,9.93
2023-03-08T16:16:20.237Z,10.35
2023-03-08T16:21:21.956Z,11.68
2023-03-08T16:26:24.322Z,14.20
2023-03-08T16:31:26.117Z,11.55
2023-03-08T16:36:27.810Z,13.80
2023-03-08T16:41:30.104Z,17.00
2023-03-08T16:46:32.933Z,17.60
2023-03-08T16:51:37.340Z,14.10
2023-03-08T16:56:42.379Z,16.85
2023-03-08T17:01:44.483Z,17.60
2023-03-08T17:06:46.646Z,18.27
2023-03-08T17:11:48.434Z,16.80
2023-03-08T17:16:50.105Z,18.17
2023-03-08T17:21:52.116Z,17.45
2023-03-08T17:26:54.241Z,21.33
2023-03-08T17:31:55.892Z,28.13
2023-03-08T17:36:57.874Z,20.67
2023-03-08T17:41:59.679Z,21.50
2023-03-08T17:47:01.519Z,20.80
2023-03-08T17:52:03.323Z,22.13
2023-03-08T17:57:05.193Z,26.75
2023-03-08T18:02:07.065Z,27.45
2023-03-08T18:07:08.718Z,22.45
2023-03-08T18:12:11.524Z,25.08
2023-03-08T18:17:13.233Z,24.75
2023-03-08T18:22:15.840Z,27.33
2023-03-08T18:27:17.657Z,23.55
2023-03-08T18:32:19.637Z,22.90
2023-03-08T18:37:21.552Z,25.38
2023-03-08T18:42:23.305Z,22.67
2023-03-08T18:47:25.102Z,25.05
2023-03-08T18:52:26.766Z,24.75
2023-03-08T18:57:28.481Z,22.17
2023-03-08T19:02:30.467Z,25.90
2023-03-08T19:07:32.422Z,25.88
2023-03-08T19:12:37.280Z,25.80
2023-03-08T19:17:39.049Z,27.45
2023-03-08T19:22:41.126Z,28.42
2023-03-08T19:27:43.194Z,28.48
2023-03-08T19:32:44.936Z,28.40
2023-03-08T19:37:46.801Z,27.98
2023-03-08T19:42:51.554Z,32.17
2023-03-08T19:47:53.176Z,30.88
2023-03-08T19:52:55.100Z,32.13
2023-03-08T19:57:56.799Z,36.10
2023-03-08T20:02:59.473Z,37.42
2023-03-08T20:08:01.220Z,39.92
2023-03-08T20:13:03.415Z,32.53
2023-03-08T20:18:05.124Z,28.08
2023-03-08T20:23:07.066Z,29.77
2023-03-08T20:28:10.109Z,29.00
2023-03-08T20:33:11.842Z,29.55
2023-03-08T20:38:13.737Z,29.48
2023-03-08T20:43:15.500Z,30.38
2023-03-08T20:48:17.287Z,36.67
2023-03-08T20:53:18.957Z,31.08
2023-03-08T20:58:21.201Z,36.75
2023-03-08T21:03:23.102Z,39.58
2023-03-08T21:08:24.926Z,44.38
2023-03-08T21:13:26.521Z,42.05
2023-03-08T21:18:28.229Z,37.10
2023-03-08T21:23:29.962Z,35.63
2023-03-08T21:28:31.574Z,41.05
2023-03-08T21:33:33.177Z,45.55
2023-03-08T21:38:34.876Z,40.85
2023-03-08T21:43:36.519Z,47.50
2023-03-08T21:48:38.216Z,36.80
2023-03-08T21:53:40.415Z,40.03
2023-03-08T21:58:42.966Z,43.45
2023-03-08T22:03:44.563Z,48.10
2023-03-08T22:08:46.836Z,45.20
2023-03-08T22:13:50.807Z,51.78
2023-03-08T22:18:54.756Z,47.63
2023-03-08T22:23:58.391Z,50.13
2023-03-08T22:29:00.185Z,38.75
2023-03-08T22:34:01.904Z,44.13
2023-03-08T22:39:03.613Z,46.65
2023-03-08T22:44:07.586Z,57.30
2023-03-08T22:49:14.039Z,48.38
2023-03-08T22:54:21.756Z,48.75
2023-03-08T22:59:25.586Z,46.63
2023-03-08T23:04:27.340Z,47.63
2023-03-08T23:09:29.184Z,45.88
2023-03-08T23:14:30.906Z,46.67
2023-03-08T23:19:32.531Z,45.63
2023-03-08T23:24:34.386Z,48.58
2023-03-08T23:29:36.271Z,46.70
2023-03-08T23:34:38.026Z,46.08
2023-03-08T23:39:39.641Z,43.60
2023-03-08T23:44:41.310Z,48.75
2023-03-08T23:49:42.939Z,41.33
2023-03-08T23:54:44.557Z,43.65
2023-03-08T23:59:46.263Z,39.58
